createdAt,value
2022-12-31T00:00:04.787Z,93.99
2022-12-31T00:02:31.866Z,94.24
2022-12-31T00:04:58.350Z,94.06
2022-12-31T00:07:24.843Z,94.01
2022-12-31T00:09:51.234Z,93.91
2022-12-31T00:12:17.623Z,93.77
2022-12-31T00:14:44.072Z,94.02
2022-12-31T00:17:10.587Z,93.51
2022-12-31T00:19:37.153Z,93.46
2022-12-31T00:22:03.626Z,93.25
2022-12-31T00:24:31.026Z,93.21
2022-12-31T00:26:57.600Z,93.04
2022-12-31T00:29:24.102Z,92.92
2022-12-31T00:31:50.504Z,93.00
2022-12-31T00:34:16.968Z,93.37
2022-12-31T00:36:45.803Z,93.59
2022-12-31T00:39:12.282Z,93.06
2022-12-31T00:41:39.028Z,93.01
2022-12-31T00:44:05.580Z,92.79
2022-12-31T00:46:32.146Z,92.80
2022-12-31T00:48:58.653Z,92.68
2022-12-31T00:51:27.372Z,92.47
2022-12-31T00:53:55.611Z,92.67
2022-12-31T00:56:24.392Z,92.34
2022-12-31T00:58:51.305Z,92.27
2022-12-31T01:01:38.442Z,92.13
2022-12-31T01:04:10.703Z,92.18
2022-12-31T01:06:37.607Z,92.47
2022-12-31T01:09:05.366Z,92.44
2022-12-31T01:11:31.997Z,91.94
2022-12-31T01:14:08.975Z,92.48
2022-12-31T01:16:41.329Z,92.03
2022-12-31T01:19:10.878Z,92.10
2022-12-31T01:21:39.849Z,91.88
2022-12-31T01:24:07.076Z,92.12
2022-12-31T01:26:33.472Z,91.94
2022-12-31T01:28:59.934Z,92.05
2022-12-31T01:31:27.068Z,92.01
2022-12-31T01:33:54.041Z,91.96
2022-12-31T01:36:26.185Z,92.08
2022-12-31T01:38:54.757Z,92.01
2022-12-31T01:41:30.147Z,91.92
2022-12-31T01:44:21.347Z,91.82
2022-12-31T01:46:51.782Z,91.87
2022-12-31T01:49:45.175Z,91.78
2022-12-31T01:52:50.173Z,91.79
2022-12-31T01:55:23.678Z,91.83
2022-12-31T01:57:55.579Z,92.08
2022-12-31T02:00:22.026Z,92.05
2022-12-31T02:02:48.860Z,91.99
2022-12-31T02:05:25.995Z,92.04
2022-12-31T02:07:54.079Z,91.93
2022-12-31T02:10:20.771Z,92.07
2022-12-31T02:12:48.425Z,92.01
2022-12-31T02:15:15.040Z,91.79
2022-12-31T02:17:41.452Z,91.92
2022-12-31T02:20:26.660Z,92.01
2022-12-31T02:23:10.737Z,91.74
2022-12-31T02:25:40.085Z,91.99
2022-12-31T02:28:25.290Z,91.69
2022-12-31T02:31:01.092Z,91.95
2022-12-31T02:33:32.637Z,91.86
2022-12-31T02:36:04.761Z,92.06
2022-12-31T02:38:35.631Z,92.21
2022-12-31T02:41:02.049Z,92.21
2022-12-31T02:43:28.488Z,92.51
2022-12-31T02:46:15.717Z,92.27
2022-12-31T02:49:10.635Z,92.22
2022-12-31T02:52:03.695Z,92.12
2022-12-31T02:54:41.002Z,92.12
2022-12-31T02:57:21.422Z,92.00
2022-12-31T03:00:15.855Z,92.33
2022-12-31T03:02:45.845Z,92.06
2022-12-31T03:05:15.425Z,91.96
2022-12-31T03:07:43.807Z,92.32
2022-12-31T03:10:10.893Z,92.05
2022-12-31T03:12:46.855Z,92.25
2022-12-31T03:15:20.992Z,91.98
2022-12-31T03:17:53.618Z,92.10
2022-12-31T03:20:40.349Z,92.13
2022-12-31T03:23:10.240Z,92.25
2022-12-31T03:25:38.946Z,92.29
2022-12-31T03:28:08.513Z,92.20
2022-12-31T03:30:36.620Z,92.35
2022-12-31T03:33:05.134Z,92.52
2022-12-31T03:35:34.464Z,92.25
2022-12-31T03:38:01.142Z,92.50
2022-12-31T03:40:29.787Z,92.25
2022-12-31T03:42:56.487Z,92.29
2022-12-31T03:45:23.803Z,92.78
2022-12-31T03:47:50.217Z,92.56
2022-12-31T03:50:18.582Z,92.29
2022-12-31T03:52:45.501Z,92.50
2022-12-31T03:55:12.028Z,92.51
2022-12-31T03:57:39.041Z,92.72
2022-12-31T04:00:08.577Z,92.58
2022-12-31T04:02:35.215Z,92.64
2022-12-31T04:05:01.879Z,92.43
2022-12-31T04:07:29.407Z,92.27
2022-12-31T04:09:55.874Z,92.33
2022-12-31T04:12:22.285Z,92.34
2022-12-31T04:14:48.718Z,91.94
2022-12-31T04:17:15.178Z,91.98
2022-12-31T04:19:41.703Z,91.80
2022-12-31T04:22:08.293Z,91.60
2022-12-31T04:24:34.716Z,91.66
2022-12-31T04:27:07.245Z,91.25
2022-12-31T04:29:35.284Z,91.64
2022-12-31T04:32:01.871Z,91.42
2022-12-31T04:34:28.393Z,91.56
2022-12-31T04:36:54.787Z,91.51
2022-12-31T04:39:21.168Z,91.25
2022-12-31T04:41:47.748Z,91.56
2022-12-31T04:44:14.222Z,91.43
2022-12-31T04:46:40.902Z,91.26
2022-12-31T04:49:07.694Z,91.43
2022-12-31T04:51:34.432Z,91.57
2022-12-31T04:54:01.200Z,91.37
2022-12-31T04:56:28.690Z,91.02
2022-12-31T04:58:55.453Z,91.33
2022-12-31T05:01:22.617Z,91.18
2022-12-31T05:03:49.422Z,91.66
2022-12-31T05:06:18.338Z,91.47
2022-12-31T05:08:44.988Z,91.48
2022-12-31T05:11:11.787Z,91.48
2022-12-31T05:13:38.971Z,91.41
2022-12-31T05:16:06.289Z,91.38
2022-12-31T05:18:33.929Z,91.32
2022-12-31T05:21:00.620Z,91.35
2022-12-31T05:23:27.402Z,91.39
2022-12-31T05:25:54.504Z,91.61
2022-12-31T05:28:21.463Z,91.68
2022-12-31T05:30:49.979Z,91.33
2022-12-31T05:33:18.011Z,91.84
2022-12-31T05:35:45.631Z,92.04
2022-12-31T05:38:12.090Z,92.08
2022-12-31T05:40:38.460Z,92.16
2022-12-31T05:43:04.946Z,92.10
2022-12-31T05:45:31.613Z,92.25
2022-12-31T05:47:58.339Z,91.96
2022-12-31T05:50:25.139Z,91.76
2022-12-31T05:52:56.156Z,91.85
2022-12-31T05:55:23.053Z,91.46
2022-12-31T05:57:49.554Z,91.75
2022-12-31T06:00:16.302Z,91.89
2022-12-31T06:02:43.090Z,91.34
2022-12-31T06:05:09.724Z,91.92
2022-12-31T06:07:36.231Z,91.76
2022-12-31T06:10:04.952Z,91.63
2022-12-31T06:12:31.389Z,91.57
2022-12-31T06:14:57.786Z,92.07
2022-12-31T06:17:24.182Z,92.11
2022-12-31T06:19:50.595Z,91.94
2022-12-31T06:22:17.067Z,92.12
2022-12-31T06:24:43.465Z,92.02
2022-12-31T06:27:09.926Z,92.03
2022-12-31T06:29:36.472Z,91.75
2022-12-31T06:32:03.181Z,91.69
2022-12-31T06:34:29.530Z,91.86
2022-12-31T06:36:55.960Z,91.91
2022-12-31T06:39:22.449Z,92.06
2022-12-31T06:41:48.886Z,92.03
2022-12-31T06:44:15.385Z,92.36
2022-12-31T06:46:42.717Z,91.75
2022-12-31T06:49:09.192Z,91.94
2022-12-31T06:51:35.586Z,91.91
2022-12-31T06:54:02.051Z,92.06
2022-12-31T06:56:33.945Z,92.43
2022-12-31T06:59:01.599Z,92.62
2022-12-31T07:01:52.192Z,92.40
2022-12-31T07:04:48.168Z,92.57
2022-12-31T07:07:38.308Z,92.83
2022-12-31T07:10:42.055Z,92.91
2022-12-31T07:13:23.815Z,93.07
2022-12-31T07:16:24.652Z,93.33
2022-12-31T07:19:03.019Z,93.57
2022-12-31T07:21:39.322Z,93.90
2022-12-31T07:24:10.076Z,94.45
2022-12-31T07:27:07.145Z,94.25
2022-12-31T07:29:46.188Z,94.51
2022-12-31T07:32:37.672Z,94.07
2022-12-31T07:35:16.174Z,94.18
2022-12-31T07:37:57.124Z,94.40
2022-12-31T07:40:53.683Z,94.56
2022-12-31T07:43:34.376Z,94.95
2022-12-31T07:46:24.636Z,94.97
2022-12-31T07:48:51.395Z,95.15
2022-12-31T07:51:18.110Z,95.10
2022-12-31T07:53:44.554Z,95.34
2022-12-31T07:56:11.072Z,94.97
2022-12-31T07:58:40.575Z,95.17
2022-12-31T08:01:11.336Z,95.43
2022-12-31T08:03:47.968Z,95.38
2022-12-31T08:06:46.278Z,95.56
2022-12-31T08:09:45.741Z,95.34
2022-12-31T08:12:12.302Z,96.01
2022-12-31T08:14:47.305Z,95.72
2022-12-31T08:17:16.306Z,95.83
2022-12-31T08:19:44.033Z,95.62
2022-12-31T08:22:39.450Z,95.36
2022-12-31T08:25:27.614Z,95.21
2022-12-31T08:28:00.121Z,95.49
2022-12-31T08:30:57.845Z,94.78
2022-12-31T08:33:37.065Z,95.36
2022-12-31T08:36:47.658Z,95.14
2022-12-31T08:39:51.137Z,95.33
2022-12-31T08:42:41.088Z,94.90
2022-12-31T08:45:19.354Z,94.75
2022-12-31T08:48:00.237Z,94.62
2022-12-31T08:50:27.494Z,94.87
2022-12-31T08:52:54.318Z,94.55
2022-12-31T08:55:21.869Z,94.25
2022-12-31T08:58:18.906Z,93.83
2022-12-31T09:00:48.967Z,93.83
2022-12-31T09:03:18.105Z,93.70
2022-12-31T09:05:53.093Z,93.35
2022-12-31T09:08:44.238Z,92.38
2022-12-31T09:11:22.875Z,92.29
2022-12-31T09:14:40.892Z,92.41
2022-12-31T09:17:19.188Z,92.49
2022-12-31T09:19:45.724Z,91.95
2022-12-31T09:22:12.305Z,91.91
2022-12-31T09:24:39.075Z,91.76
2022-12-31T09:27:20.058Z,91.51
2022-12-31T09:29:58.102Z,91.44
2022-12-31T09:32:51.906Z,91.85
2022-12-31T09:35:33.395Z,91.77
2022-12-31T09:38:12.814Z,91.68
2022-12-31T09:40:44.860Z,92.31
2022-12-31T09:43:48.426Z,91.74
2022-12-31T09:47:11.239Z,91.55
2022-12-31T09:49:49.989Z,91.90
2022-12-31T09:52:32.928Z,91.42
2022-12-31T09:55:23.997Z,92.27
2022-12-31T09:58:05.356Z,91.76
2022-12-31T10:00:52.120Z,92.39
2022-12-31T10:03:57.748Z,91.89
2022-12-31T10:06:43.836Z,91.88
2022-12-31T10:09:37.385Z,92.22
2022-12-31T10:12:22.311Z,93.00
2022-12-31T10:15:24.971Z,93.27
2022-12-31T10:18:11.599Z,93.63
2022-12-31T10:20:47.336Z,93.28
2022-12-31T10:23:47.917Z,93.03
2022-12-31T10:26:22.446Z,92.87
2022-12-31T10:29:26.445Z,92.95
2022-12-31T10:32:14.412Z,93.25
2022-12-31T10:35:12.185Z,93.66
2022-12-31T10:38:04.919Z,93.33
2022-12-31T10:40:49.490Z,93.25
2022-12-31T10:44:03.940Z,93.72
2022-12-31T10:47:13.773Z,93.27
2022-12-31T10:49:58.930Z,92.68
2022-12-31T10:52:59.518Z,92.19
2022-12-31T10:55:42.541Z,92.29
2022-12-31T10:58:15.024Z,92.11
2022-12-31T11:01:06.075Z,92.05
2022-12-31T11:03:35.343Z,91.90
2022-12-31T11:06:38.894Z,92.08
2022-12-31T11:09:53.449Z,91.79
2022-12-31T11:12:53.303Z,91.46
2022-12-31T11:15:22.715Z,91.53
2022-12-31T11:17:58.171Z,91.25
2022-12-31T11:20:39.601Z,90.92
2022-12-31T11:23:26.814Z,90.96
2022-12-31T11:26:29.449Z,91.12
2022-12-31T11:29:07.846Z,91.78
2022-12-31T11:31:52.952Z,92.00
2022-12-31T11:34:37.380Z,92.20
2022-12-31T11:37:12.819Z,92.40
2022-12-31T11:40:19.214Z,92.48
2022-12-31T11:42:57.250Z,92.93
2022-12-31T11:45:52.310Z,92.91
2022-12-31T11:48:50.351Z,92.92
2022-12-31T11:51:35.867Z,93.02
2022-12-31T11:54:29.837Z,92.78
2022-12-31T11:57:38.804Z,92.93
2022-12-31T12:00:24.681Z,93.00
2022-12-31T12:02:59.191Z,93.06
2022-12-31T12:05:26.956Z,92.88
2022-12-31T12:07:54.305Z,93.28
2022-12-31T12:10:29.299Z,93.44
2022-12-31T12:13:00.236Z,93.23
2022-12-31T12:15:33.171Z,93.60
2022-12-31T12:18:06.510Z,93.66
2022-12-31T12:20:36.546Z,93.98
2022-12-31T12:23:14.656Z,94.18
2022-12-31T12:25:43.673Z,94.08
2022-12-31T12:28:23.891Z,93.81
2022-12-31T12:30:59.223Z,93.74
2022-12-31T12:33:27.139Z,93.69
2022-12-31T12:35:53.771Z,93.74
2022-12-31T12:38:23.045Z,93.59
2022-12-31T12:40:58.014Z,93.70
2022-12-31T12:43:30.359Z,93.67
2022-12-31T12:46:04.001Z,94.00
2022-12-31T12:48:39.130Z,94.44
2022-12-31T12:51:30.818Z,94.41
2022-12-31T12:54:42.308Z,94.44
2022-12-31T12:57:24.176Z,94.82
2022-12-31T13:00:17.444Z,95.59
2022-12-31T13:02:55.690Z,95.53
2022-12-31T13:05:32.548Z,95.22
2022-12-31T13:08:26.347Z,95.22
2022-12-31T13:11:28.336Z,95.83
2022-12-31T13:14:00.810Z,95.63
2022-12-31T13:16:54.628Z,95.02
2022-12-31T13:19:58.528Z,95.06
2022-12-31T13:22:40.224Z,95.47
2022-12-31T13:25:22.780Z,95.61
2022-12-31T13:27:52.535Z,95.20
2022-12-31T13:30:40.184Z,95.00
2022-12-31T13:33:27.755Z,95.42
2022-12-31T13:35:57.612Z,95.21
2022-12-31T13:38:29.429Z,95.92
2022-12-31T13:41:09.024Z,95.46
2022-12-31T13:43:58.395Z,95.49
2022-12-31T13:46:47.485Z,95.75
2022-12-31T13:49:25.411Z,95.56
2022-12-31T13:52:30.416Z,95.81
2022-12-31T13:55:34.397Z,95.76
2022-12-31T13:58:22.923Z,96.02
2022-12-31T14:00:57.051Z,96.28
2022-12-31T14:03:29.508Z,95.95
2022-12-31T14:06:07.788Z,95.58
2022-12-31T14:08:34.265Z,95.93
2022-12-31T14:11:18.443Z,95.84
2022-12-31T14:13:54.414Z,96.08
2022-12-31T14:16:46.229Z,96.04
2022-12-31T14:19:39.384Z,95.91
2022-12-31T14:22:25.233Z,95.43
2022-12-31T14:24:52.294Z,95.74
2022-12-31T14:27:42.075Z,95.91
2022-12-31T14:30:23.099Z,95.56
2022-12-31T14:33:18.335Z,95.58
2022-12-31T14:36:23.204Z,95.93
2022-12-31T14:39:09.857Z,96.02
2022-12-31T14:42:17.619Z,96.06
2022-12-31T14:44:59.574Z,95.63
2022-12-31T14:47:51.136Z,95.68
2022-12-31T14:50:22.013Z,95.34
2022-12-31T14:52:58.684Z,94.86
2022-12-31T14:55:25.122Z,95.02
2022-12-31T14:58:26.581Z,95.37
2022-12-31T15:00:39.961Z,95.07
2022-12-31T15:03:23.769Z,94.96
2022-12-31T15:05:54.070Z,94.60
2022-12-31T15:08:49.147Z,94.51
2022-12-31T15:11:43.563Z,94.11
2022-12-31T15:14:19.002Z,93.91
2022-12-31T15:16:58.182Z,93.80
2022-12-31T15:19:43.335Z,93.79
2022-12-31T15:22:44.919Z,93.64
2022-12-31T15:25:40.516Z,93.31
2022-12-31T15:28:24.457Z,93.38
2022-12-31T15:30:52.867Z,93.45
2022-12-31T15:33:34.284Z,93.43
2022-12-31T15:36:18.754Z,93.51
2022-12-31T15:38:45.491Z,93.82
2022-12-31T15:41:36.396Z,93.65
2022-12-31T15:44:30.311Z,93.74
2022-12-31T15:47:09.950Z,93.94
2022-12-31T15:49:40.291Z,93.76
2022-12-31T15:52:13.731Z,93.68
2022-12-31T15:54:44.189Z,93.44
2022-12-31T15:57:20.769Z,93.26
2022-12-31T15:59:47.600Z,93.46
2022-12-31T16:02:22.028Z,93.61
2022-12-31T16:04:49.181Z,94.06
2022-12-31T16:07:17.225Z,93.74
2022-12-31T16:09:49.431Z,93.58
2022-12-31T16:12:21.170Z,92.88
2022-12-31T16:14:53.007Z,92.64
2022-12-31T16:17:32.718Z,92.37
2022-12-31T16:20:00.812Z,92.02
2022-12-31T16:22:35.443Z,91.58
2022-12-31T16:25:29.647Z,91.20
2022-12-31T16:27:50.441Z,90.92
2022-12-31T16:30:22.691Z,90.55
2022-12-31T16:32:50.816Z,90.53
2022-12-31T16:35:23.656Z,90.13
2022-12-31T16:38:16.897Z,89.75
2022-12-31T16:41:03.195Z,89.36
2022-12-31T16:43:37.284Z,88.65
2022-12-31T16:46:26.522Z,88.40
2022-12-31T16:48:56.951Z,88.01
2022-12-31T16:51:28.633Z,87.52
2022-12-31T16:53:55.337Z,87.17
2022-12-31T16:56:31.408Z,87.28
2022-12-31T16:59:03.695Z,86.81
2022-12-31T17:01:33.874Z,86.46
2022-12-31T17:04:06.290Z,85.93
2022-12-31T17:06:33.656Z,85.66
2022-12-31T17:09:15.477Z,85.33
2022-12-31T17:11:53.905Z,85.15
2022-12-31T17:14:23.363Z,84.89
2022-12-31T17:17:02.573Z,84.79
2022-12-31T17:19:50.945Z,84.66
2022-12-31T17:22:40.221Z,84.10
2022-12-31T17:25:08.707Z,83.75
2022-12-31T17:27:36.655Z,83.02
2022-12-31T17:30:35.069Z,83.11
2022-12-31T17:33:03.397Z,82.27
2022-12-31T17:35:41.977Z,82.08
2022-12-31T17:38:23.497Z,81.87
2022-12-31T17:41:07.888Z,81.31
2022-12-31T17:43:36.569Z,80.59
2022-12-31T17:46:10.646Z,80.48
2022-12-31T17:48:37.249Z,80.50
2022-12-31T17:51:03.784Z,79.17
2022-12-31T17:53:30.194Z,79.75
2022-12-31T17:56:00.523Z,79.23
2022-12-31T17:58:47.184Z,78.76
2022-12-31T18:01:18.087Z,78.89
2022-12-31T18:03:45.149Z,77.71
2022-12-31T18:06:16.669Z,77.10
2022-12-31T18:08:43.663Z,77.03
2022-12-31T18:11:22.593Z,77.42
2022-12-31T18:13:49.381Z,76.57
2022-12-31T18:16:16.392Z,77.53
2022-12-31T18:18:43.706Z,76.01
2022-12-31T18:21:26.922Z,75.62
2022-12-31T18:26:22.371Z,75.50
2022-12-31T18:28:49.605Z,74.98
2022-12-31T18:31:19.691Z,74.99
2022-12-31T18:33:49.709Z,74.09
2022-12-31T18:36:18.024Z,73.25
2022-12-31T18:38:44.891Z,73.50
2022-12-31T18:41:18.146Z,74.01
2022-12-31T18:43:45.157Z,73.47
2022-12-31T18:46:17.437Z,73.08
2022-12-31T18:48:44.289Z,72.85
2022-12-31T18:51:19.333Z,73.19
2022-12-31T18:53:45.949Z,72.41
2022-12-31T18:56:18.801Z,72.57
2022-12-31T18:58:45.937Z,72.58
2022-12-31T19:01:27.011Z,71.50
2022-12-31T19:03:55.627Z,71.64
2022-12-31T19:06:22.446Z,71.64
2022-12-31T19:08:48.844Z,71.60
2022-12-31T19:11:15.638Z,71.46
2022-12-31T19:13:42.067Z,72.15
2022-12-31T19:16:10.324Z,71.49
2022-12-31T19:18:37.244Z,71.92
2022-12-31T19:21:04.560Z,70.48
2022-12-31T19:23:31.120Z,70.95
2022-12-31T19:25:57.546Z,70.19
2022-12-31T19:28:25.975Z,71.40
2022-12-31T19:30:52.939Z,69.99
2022-12-31T19:33:19.511Z,69.17
2022-12-31T19:35:46.185Z,69.42
2022-12-31T19:38:22.102Z,69.52
2022-12-31T19:40:50.212Z,69.33
2022-12-31T19:43:18.884Z,68.71
2022-12-31T19:45:45.753Z,69.01
2022-12-31T19:48:14.750Z,69.26
2022-12-31T19:50:48.902Z,69.13
2022-12-31T19:53:18.977Z,68.66
2022-12-31T19:55:45.502Z,68.73
2022-12-31T19:58:18.486Z,68.75
2022-12-31T20:00:51.569Z,68.67
2022-12-31T20:03:21.323Z,69.03
2022-12-31T20:05:47.828Z,68.63
2022-12-31T20:08:16.513Z,68.55
2022-12-31T20:10:43.857Z,68.78
2022-12-31T20:13:10.337Z,68.55
2022-12-31T20:15:40.375Z,68.61
2022-12-31T20:18:06.791Z,68.64
2022-12-31T20:20:33.260Z,68.84
2022-12-31T20:22:59.754Z,68.05
2022-12-31T20:25:26.198Z,68.37
2022-12-31T20:27:54.657Z,68.62
2022-12-31T20:30:22.989Z,68.56
2022-12-31T20:32:52.015Z,68.91
2022-12-31T20:35:19.543Z,68.25
2022-12-31T20:37:46.081Z,68.39
2022-12-31T20:40:14.095Z,68.46
2022-12-31T20:42:41.080Z,68.34
2022-12-31T20:45:09.938Z,68.64
2022-12-31T20:47:36.956Z,68.03
2022-12-31T20:50:12.802Z,67.90
2022-12-31T20:52:39.505Z,68.25
2022-12-31T20:55:06.497Z,67.75
2022-12-31T20:57:34.029Z,67.69
2022-12-31T21:00:01.107Z,68.12
2022-12-31T21:02:40.930Z,67.36
2022-12-31T21:05:09.505Z,67.65
2022-12-31T21:07:36.194Z,67.64
2022-12-31T21:10:02.651Z,67.82
2022-12-31T21:12:44.324Z,67.73
2022-12-31T21:15:12.439Z,67.99
2022-12-31T21:17:38.824Z,67.90
2022-12-31T21:20:05.776Z,67.99
2022-12-31T21:22:33.663Z,67.76
2022-12-31T21:25:02.011Z,67.56
2022-12-31T21:27:29.603Z,67.61
2022-12-31T21:32:43.299Z,67.76
2022-12-31T21:38:03.429Z,67.54
2022-12-31T21:40:30.789Z,68.07
2022-12-31T21:42:57.707Z,67.73
2022-12-31T21:45:24.473Z,67.76
2022-12-31T21:48:09.368Z,68.01
2022-12-31T21:50:36.005Z,67.72
2022-12-31T21:53:02.420Z,67.43
2022-12-31T21:55:47.307Z,67.44
2022-12-31T21:58:25.793Z,67.57
2022-12-31T22:01:12.186Z,67.42
2022-12-31T22:03:38.819Z,67.86
2022-12-31T22:06:14.502Z,67.60
2022-12-31T22:08:43.066Z,68.11
2022-12-31T22:11:10.837Z,68.52
2022-12-31T22:13:37.854Z,69.01
2022-12-31T22:16:05.924Z,69.54
2022-12-31T22:18:35.620Z,69.69
2022-12-31T22:21:19.244Z,70.23
2022-12-31T22:23:48.724Z,70.39
2022-12-31T22:26:17.460Z,70.34
2022-12-31T22:28:45.822Z,70.54
2022-12-31T22:31:18.323Z,70.08
2022-12-31T22:33:45.642Z,70.16
2022-12-31T22:36:14.891Z,69.98
2022-12-31T22:38:41.565Z,69.88
2022-12-31T22:41:09.569Z,69.58
2022-12-31T22:43:39.267Z,69.83
2022-12-31T22:46:13.683Z,69.47
2022-12-31T22:48:41.555Z,69.44
2022-12-31T22:51:09.329Z,68.83
2022-12-31T22:53:35.868Z,68.82
2022-12-31T22:56:02.839Z,68.92
2022-12-31T22:58:29.254Z,69.11
2022-12-31T23:00:55.629Z,68.44
2022-12-31T23:03:22.225Z,68.60
2022-12-31T23:05:52.848Z,69.26
2022-12-31T23:08:23.686Z,68.80
2022-12-31T23:11:02.687Z,68.91
2022-12-31T23:13:51.334Z,68.91
2022-12-31T23:16:37.870Z,68.95
2022-12-31T23:19:23.911Z,69.03
2022-12-31T23:22:09.367Z,69.07
2022-12-31T23:24:35.854Z,68.68
2022-12-31T23:27:02.407Z,68.67
2022-12-31T23:29:28.779Z,68.62
2022-12-31T23:31:55.227Z,68.82
2022-12-31T23:34:21.874Z,68.84
2022-12-31T23:36:48.297Z,69.23
2022-12-31T23:39:14.687Z,69.23
2022-12-31T23:41:41.394Z,68.83
2022-12-31T23:44:07.786Z,68.90
2022-12-31T23:46:34.301Z,69.17
2022-12-31T23:49:00.758Z,68.91
2022-12-31T23:51:27.196Z,68.78
2022-12-31T23:53:53.624Z,68.67
2022-12-31T23:56:23.710Z,68.66
2022-12-31T23:58:58.173Z,69.38
